sensor_id;sensor_type;location;lat;lon;timestamp;P1;durP1;ratioP1;P2;durP2;ratioP2
20739;SDS011;10530;49.968;19.844;2023-02-28T00:03:07;14.80;;;6.00;;
20739;SDS011;10530;49.968;19.844;2023-02-28T00:08:10;10.35;;;4.85;;
20739;SDS011;10530;49.968;19.844;2023-02-28T00:13:13;13.57;;;5.68;;
20739;SDS011;10530;49.968;19.844;2023-02-28T00:18:16;8.73;;;3.53;;
20739;SDS011;10530;49.968;19.844;2023-02-28T00:23:18;10.15;;;4.40;;
20739;SDS011;10530;49.968;19.844;2023-02-28T00:28:21;14.60;;;4.23;;
20739;SDS011;10530;49.968;19.844;2023-02-28T00:33:25;12.98;;;4.70;;
20739;SDS011;10530;49.968;19.844;2023-02-28T00:38:29;12.73;;;5.47;;
20739;SDS011;10530;49.968;19.844;2023-02-28T00:43:33;17.57;;;5.33;;
20739;SDS011;10530;49.968;19.844;2023-02-28T00:48:37;12.07;;;4.57;;
20739;SDS011;10530;49.968;19.844;2023-02-28T00:53:40;11.17;;;4.40;;
20739;SDS011;10530;49.968;19.844;2023-02-28T00:58:43;11.00;;;3.70;;
20739;SDS011;10530;49.968;19.844;2023-02-28T01:03:45;11.93;;;5.35;;
20739;SDS011;10530;49.968;19.844;2023-02-28T01:08:48;14.90;;;4.70;;
20739;SDS011;10530;49.968;19.844;2023-02-28T01:13:51;15.07;;;5.90;;
20739;SDS011;10530;49.968;19.844;2023-02-28T01:18:54;12.53;;;4.77;;
20739;SDS011;10530;49.968;19.844;2023-02-28T01:23:57;13.05;;;5.40;;
20739;SDS011;10530;49.968;19.844;2023-02-28T01:29:00;10.75;;;4.28;;
20739;SDS011;10530;49.968;19.844;2023-02-28T01:34:02;11.83;;;4.90;;
20739;SDS011;10530;49.968;19.844;2023-02-28T01:39:05;12.25;;;3.95;;
20739;SDS011;10530;49.968;19.844;2023-02-28T01:49:48;7.50;;;3.50;;
20739;SDS011;10530;49.968;19.844;2023-02-28T01:54:54;12.45;;;5.18;;
20739;SDS011;10530;49.968;19.844;2023-02-28T01:59:59;16.13;;;4.90;;
20739;SDS011;10530;49.968;19.844;2023-02-28T02:05:18;14.55;;;5.65;;
20739;SDS011;10530;49.968;19.844;2023-02-28T02:15:35;9.95;;;4.53;;
20739;SDS011;10530;49.968;19.844;2023-02-28T02:37:17;9.57;;;4.17;;
20739;SDS011;10530;49.968;19.844;2023-02-28T02:42:54;8.55;;;4.47;;
20739;SDS011;10530;49.968;19.844;2023-02-28T02:48:00;11.27;;;4.85;;
20739;SDS011;10530;49.968;19.844;2023-02-28T02:53:05;7.27;;;3.40;;
20739;SDS011;10530;49.968;19.844;2023-02-28T02:58:13;9.27;;;4.38;;
20739;SDS011;10530;49.968;19.844;2023-02-28T03:03:19;14.43;;;4.03;;
20739;SDS011;10530;49.968;19.844;2023-02-28T03:08:34;12.15;;;3.80;;
20739;SDS011;10530;49.968;19.844;2023-02-28T03:14:00;9.55;;;3.80;;
20739;SDS011;10530;49.968;19.844;2023-02-28T03:25:20;11.52;;;4.53;;
20739;SDS011;10530;49.968;19.844;2023-02-28T03:35:56;7.93;;;3.90;;
20739;SDS011;10530;49.968;19.844;2023-02-28T03:46:26;9.10;;;4.37;;
20739;SDS011;10530;49.968;19.844;2023-02-28T03:51:32;16.25;;;6.05;;
20739;SDS011;10530;49.968;19.844;2023-02-28T03:56:38;11.27;;;5.50;;
20739;SDS011;10530;49.968;19.844;2023-02-28T04:02:03;10.52;;;3.38;;
20739;SDS011;10530;49.968;19.844;2023-02-28T04:07:06;6.95;;;3.58;;
20739;SDS011;10530;49.968;19.844;2023-02-28T04:12:10;6.63;;;3.53;;
20739;SDS011;10530;49.968;19.844;2023-02-28T04:17:13;13.48;;;4.80;;
20739;SDS011;10530;49.968;19.844;2023-02-28T04:22:16;11.13;;;4.93;;
20739;SDS011;10530;49.968;19.844;2023-02-28T04:27:19;10.32;;;5.00;;
20739;SDS011;10530;49.968;19.844;2023-02-28T04:32:23;14.25;;;4.47;;
20739;SDS011;10530;49.968;19.844;2023-02-28T04:37:25;11.13;;;4.53;;
20739;SDS011;10530;49.968;19.844;2023-02-28T04:42:30;14.82;;;4.75;;
20739;SDS011;10530;49.968;19.844;2023-02-28T04:47:37;9.27;;;4.50;;
20739;SDS011;10530;49.968;19.844;2023-02-28T04:52:40;12.35;;;5.28;;
20739;SDS011;10530;49.968;19.844;2023-02-28T04:57:42;12.70;;;4.80;;
20739;SDS011;10530;49.968;19.844;2023-02-28T05:02:45;7.03;;;3.27;;
20739;SDS011;10530;49.968;19.844;2023-02-28T05:07:47;13.13;;;4.28;;
20739;SDS011;10530;49.968;19.844;2023-02-28T05:12:50;11.63;;;4.27;;
20739;SDS011;10530;49.968;19.844;2023-02-28T05:17:53;11.88;;;5.15;;
20739;SDS011;10530;49.968;19.844;2023-02-28T05:22:56;10.55;;;4.68;;
20739;SDS011;10530;49.968;19.844;2023-02-28T05:28:01;12.60;;;4.57;;
20739;SDS011;10530;49.968;19.844;2023-02-28T05:33:03;11.10;;;5.07;;
20739;SDS011;10530;49.968;19.844;2023-02-28T05:38:06;11.07;;;4.67;;
20739;SDS011;10530;49.968;19.844;2023-02-28T05:43:10;12.18;;;5.03;;
20739;SDS011;10530;49.968;19.844;2023-02-28T05:48:13;10.82;;;4.90;;
20739;SDS011;10530;49.968;19.844;2023-02-28T05:53:16;7.47;;;3.50;;
20739;SDS011;10530;49.968;19.844;2023-02-28T05:58:19;15.68;;;5.57;;
20739;SDS011;10530;49.968;19.844;2023-02-28T06:03:22;11.60;;;4.70;;
20739;SDS011;10530;49.968;19.844;2023-02-28T06:08:24;19.73;;;6.40;;
20739;SDS011;10530;49.968;19.844;2023-02-28T06:13:27;17.00;;;6.22;;
20739;SDS011;10530;49.968;19.844;2023-02-28T06:18:30;13.17;;;4.87;;
20739;SDS011;10530;49.968;19.844;2023-02-28T06:23:33;15.05;;;5.30;;
20739;SDS011;10530;49.968;19.844;2023-02-28T06:28:35;14.57;;;5.17;;
20739;SDS011;10530;49.968;19.844;2023-02-28T06:33:38;11.32;;;6.15;;
20739;SDS011;10530;49.968;19.844;2023-02-28T06:38:42;14.82;;;5.63;;
20739;SDS011;10530;49.968;19.844;2023-02-28T06:43:46;16.83;;;6.97;;
20739;SDS011;10530;49.968;19.844;2023-02-28T06:48:48;16.83;;;7.30;;
20739;SDS011;10530;49.968;19.844;2023-02-28T06:53:51;13.50;;;6.30;;
20739;SDS011;10530;49.968;19.844;2023-02-28T06:58:54;12.48;;;5.00;;
20739;SDS011;10530;49.968;19.844;2023-02-28T07:03:58;8.95;;;3.25;;
20739;SDS011;10530;49.968;19.844;2023-02-28T07:09:01;13.83;;;5.90;;
20739;SDS011;10530;49.968;19.844;2023-02-28T07:14:08;9.68;;;4.60;;
20739;SDS011;10530;49.968;19.844;2023-02-28T07:19:11;16.17;;;6.47;;
20739;SDS011;10530;49.968;19.844;2023-02-28T07:24:14;16.85;;;5.85;;
20739;SDS011;10530;49.968;19.844;2023-02-28T07:29:17;18.40;;;6.68;;
20739;SDS011;10530;49.968;19.844;2023-02-28T07:34:20;16.97;;;6.43;;
20739;SDS011;10530;49.968;19.844;2023-02-28T07:39:24;16.00;;;7.85;;
20739;SDS011;10530;49.968;19.844;2023-02-28T07:44:26;22.40;;;6.60;;
20739;SDS011;10530;49.968;19.844;2023-02-28T07:49:29;20.50;;;8.27;;
20739;SDS011;10530;49.968;19.844;2023-02-28T07:54:32;18.15;;;6.80;;
20739;SDS011;10530;49.968;19.844;2023-02-28T07:59:36;12.77;;;6.47;;
20739;SDS011;10530;49.968;19.844;2023-02-28T08:04:38;19.08;;;6.10;;
20739;SDS011;10530;49.968;19.844;2023-02-28T08:09:42;9.90;;;3.03;;
20739;SDS011;10530;49.968;19.844;2023-02-28T08:14:46;7.95;;;3.47;;
20739;SDS011;10530;49.968;19.844;2023-02-28T08:19:49;15.88;;;6.80;;
20739;SDS011;10530;49.968;19.844;2023-02-28T08:24:52;19.60;;;6.20;;
20739;SDS011;10530;49.968;19.844;2023-02-28T08:29:55;9.75;;;2.90;;
20739;SDS011;10530;49.968;19.844;2023-02-28T08:34:57;9.77;;;5.27;;
20739;SDS011;10530;49.968;19.844;2023-02-28T08:40:00;6.82;;;3.83;;
20739;SDS011;10530;49.968;19.844;2023-02-28T08:45:03;12.30;;;3.47;;
20739;SDS011;10530;49.968;19.844;2023-02-28T08:50:07;7.47;;;2.23;;
20739;SDS011;10530;49.968;19.844;2023-02-28T08:55:11;7.60;;;3.00;;
20739;SDS011;10530;49.968;19.844;2023-02-28T09:00:14;4.30;;;1.63;;
20739;SDS011;10530;49.968;19.844;2023-02-28T09:05:17;5.18;;;2.10;;
20739;SDS011;10530;49.968;19.844;2023-02-28T09:10:20;4.65;;;1.95;;
20739;SDS011;10530;49.968;19.844;2023-02-28T09:15:23;12.97;;;3.80;;
20739;SDS011;10530;49.968;19.844;2023-02-28T09:20:26;3.33;;;1.95;;
20739;SDS011;10530;49.968;19.844;2023-02-28T09:25:29;3.77;;;1.93;;
20739;SDS011;10530;49.968;19.844;2023-02-28T09:30:32;8.48;;;4.00;;
20739;SDS011;10530;49.968;19.844;2023-02-28T09:35:34;12.38;;;4.20;;
20739;SDS011;10530;49.968;19.844;2023-02-28T09:46:13;10.15;;;5.00;;
20739;SDS011;10530;49.968;19.844;2023-02-28T09:56:54;11.02;;;4.05;;
20739;SDS011;10530;49.968;19.844;2023-02-28T10:03:04;10.50;;;4.88;;
20739;SDS011;10530;49.968;19.844;2023-02-28T10:18:43;8.93;;;4.53;;
20739;SDS011;10530;49.968;19.844;2023-02-28T10:23:51;10.82;;;5.35;;
20739;SDS011;10530;49.968;19.844;2023-02-28T10:29:01;12.07;;;5.43;;
20739;SDS011;10530;49.968;19.844;2023-02-28T10:34:04;9.43;;;4.77;;
20739;SDS011;10530;49.968;19.844;2023-02-28T10:44:40;10.93;;;5.40;;
20739;SDS011;10530;49.968;19.844;2023-02-28T10:49:49;9.60;;;5.05;;
20739;SDS011;10530;49.968;19.844;2023-02-28T10:54:56;10.65;;;5.45;;
20739;SDS011;10530;49.968;19.844;2023-02-28T11:00:24;10.63;;;4.87;;
20739;SDS011;10530;49.968;19.844;2023-02-28T11:05:34;11.65;;;5.03;;
20739;SDS011;10530;49.968;19.844;2023-02-28T11:10:38;10.67;;;5.07;;
20739;SDS011;10530;49.968;19.844;2023-02-28T11:15:41;10.50;;;4.70;;
20739;SDS011;10530;49.968;19.844;2023-02-28T11:20:51;11.10;;;5.30;;
20739;SDS011;10530;49.968;19.844;2023-02-28T11:25:57;12.30;;;5.50;;
20739;SDS011;10530;49.968;19.844;2023-02-28T11:36:22;10.57;;;5.80;;
20739;SDS011;10530;49.968;19.844;2023-02-28T11:41:40;9.95;;;4.65;;
20739;SDS011;10530;49.968;19.844;2023-02-28T11:46:49;12.07;;;5.63;;
20739;SDS011;10530;49.968;19.844;2023-02-28T11:51:59;12.23;;;5.20;;
20739;SDS011;10530;49.968;19.844;2023-02-28T12:03:04;9.13;;;4.73;;
20739;SDS011;10530;49.968;19.844;2023-02-28T12:08:27;10.70;;;5.60;;
20739;SDS011;10530;49.968;19.844;2023-02-28T12:18:58;15.23;;;6.57;;
20739;SDS011;10530;49.968;19.844;2023-02-28T12:30:19;12.73;;;5.67;;
20739;SDS011;10530;49.968;19.844;2023-02-28T12:40:22;17.98;;;5.93;;
20739;SDS011;10530;49.968;19.844;2023-02-28T12:50:55;12.02;;;4.88;;
20739;SDS011;10530;49.968;19.844;2023-02-28T13:11:40;9.67;;;4.97;;
20739;SDS011;10530;49.968;19.844;2023-02-28T13:21:50;12.77;;;5.00;;
20739;SDS011;10530;49.968;19.844;2023-02-28T13:32:18;10.43;;;4.85;;
20739;SDS011;10530;49.968;19.844;2023-02-28T13:37:42;12.53;;;5.53;;
20739;SDS011;10530;49.968;19.844;2023-02-28T13:42:47;13.23;;;5.40;;
20739;SDS011;10530;49.968;19.844;2023-02-28T13:58:20;10.65;;;5.20;;
20739;SDS011;10530;49.968;19.844;2023-02-28T14:03:34;12.07;;;4.90;;
20739;SDS011;10530;49.968;19.844;2023-02-28T14:08:58;11.07;;;5.38;;
20739;SDS011;10530;49.968;19.844;2023-02-28T14:14:06;11.97;;;5.30;;
20739;SDS011;10530;49.968;19.844;2023-02-28T14:19:24;9.90;;;5.22;;
20739;SDS011;10530;49.968;19.844;2023-02-28T14:24:42;10.23;;;4.22;;
20739;SDS011;10530;49.968;19.844;2023-02-28T14:41:04;15.00;;;5.00;;
20739;SDS011;10530;49.968;19.844;2023-02-28T14:46:16;12.75;;;5.43;;
20739;SDS011;10530;49.968;19.844;2023-02-28T14:51:21;9.48;;;4.70;;
20739;SDS011;10530;49.968;19.844;2023-02-28T14:56:38;10.60;;;4.80;;
20739;SDS011;10530;49.968;19.844;2023-02-28T15:01:42;10.00;;;4.68;;
20739;SDS011;10530;49.968;19.844;2023-02-28T15:06:44;10.20;;;4.53;;
20739;SDS011;10530;49.968;19.844;2023-02-28T15:11:48;9.50;;;4.28;;
20739;SDS011;10530;49.968;19.844;2023-02-28T15:16:56;12.25;;;4.72;;
20739;SDS011;10530;49.968;19.844;2023-02-28T15:22:04;14.57;;;4.67;;
20739;SDS011;10530;49.968;19.844;2023-02-28T15:32:28;15.00;;;4.67;;
20739;SDS011;10530;49.968;19.844;2023-02-28T15:42:42;13.10;;;4.95;;
20739;SDS011;10530;49.968;19.844;2023-02-28T15:47:59;8.30;;;3.60;;
20739;SDS011;10530;49.968;19.844;2023-02-28T15:53:18;12.90;;;4.45;;
20739;SDS011;10530;49.968;19.844;2023-02-28T15:58:24;8.57;;;3.73;;
20739;SDS011;10530;49.968;19.844;2023-02-28T16:03:35;13.93;;;4.43;;
20739;SDS011;10530;49.968;19.844;2023-02-28T16:08:44;8.15;;;2.85;;
20739;SDS011;10530;49.968;19.844;2023-02-28T16:13:46;11.47;;;4.20;;
20739;SDS011;10530;49.968;19.844;2023-02-28T16:18:50;11.23;;;4.03;;
20739;SDS011;10530;49.968;19.844;2023-02-28T16:23:53;9.20;;;3.93;;
20739;SDS011;10530;49.968;19.844;2023-02-28T16:28:56;10.70;;;4.55;;
20739;SDS011;10530;49.968;19.844;2023-02-28T16:33:59;9.80;;;3.75;;
20739;SDS011;10530;49.968;19.844;2023-02-28T16:39:02;10.90;;;4.40;;
20739;SDS011;10530;49.968;19.844;2023-02-28T16:44:05;11.77;;;4.13;;
20739;SDS011;10530;49.968;19.844;2023-02-28T16:49:31;12.93;;;5.13;;
20739;SDS011;10530;49.968;19.844;2023-02-28T16:54:35;14.02;;;5.00;;
20739;SDS011;10530;49.968;19.844;2023-02-28T16:59:38;16.77;;;5.95;;
20739;SDS011;10530;49.968;19.844;2023-02-28T17:04:41;11.93;;;4.67;;
20739;SDS011;10530;49.968;19.844;2023-02-28T17:09:44;10.95;;;4.75;;
20739;SDS011;10530;49.968;19.844;2023-02-28T17:14:47;10.97;;;4.77;;
20739;SDS011;10530;49.968;19.844;2023-02-28T17:19:50;14.27;;;5.22;;
20739;SDS011;10530;49.968;19.844;2023-02-28T17:24:53;17.77;;;5.85;;
20739;SDS011;10530;49.968;19.844;2023-02-28T17:29:59;16.60;;;4.77;;
20739;SDS011;10530;49.968;19.844;2023-02-28T17:35:03;20.05;;;6.40;;
20739;SDS011;10530;49.968;19.844;2023-02-28T17:40:06;23.07;;;7.97;;
20739;SDS011;10530;49.968;19.844;2023-02-28T17:45:15;14.40;;;7.03;;
20739;SDS011;10530;49.968;19.844;2023-02-28T17:50:19;25.40;;;9.43;;
20739;SDS011;10530;49.968;19.844;2023-02-28T17:55:23;21.10;;;8.70;;
20739;SDS011;10530;49.968;19.844;2023-02-28T18:00:26;17.73;;;7.95;;
20739;SDS011;10530;49.968;19.844;2023-02-28T18:05:29;31.83;;;10.27;;
20739;SDS011;10530;49.968;19.844;2023-02-28T18:10:33;22.58;;;8.63;;
20739;SDS011;10530;49.968;19.844;2023-02-28T18:15:36;24.30;;;10.18;;
20739;SDS011;10530;49.968;19.844;2023-02-28T18:20:41;21.43;;;10.40;;
20739;SDS011;10530;49.968;19.844;2023-02-28T18:25:44;37.28;;;14.02;;
20739;SDS011;10530;49.968;19.844;2023-02-28T18:30:46;25.93;;;10.80;;
20739;SDS011;10530;49.968;19.844;2023-02-28T18:35:54;33.35;;;10.80;;
20739;SDS011;10530;49.968;19.844;2023-02-28T18:40:59;25.92;;;11.57;;
20739;SDS011;10530;49.968;19.844;2023-02-28T18:46:07;25.80;;;11.10;;
20739;SDS011;10530;49.968;19.844;2023-02-28T18:51:16;29.83;;;11.60;;
20739;SDS011;10530;49.968;19.844;2023-02-28T18:56:22;24.40;;;10.40;;
20739;SDS011;10530;49.968;19.844;2023-02-28T19:01:27;25.27;;;11.38;;
20739;SDS011;10530;49.968;19.844;2023-02-28T19:06:33;23.50;;;10.07;;
20739;SDS011;10530;49.968;19.844;2023-02-28T19:11:39;32.10;;;11.83;;
20739;SDS011;10530;49.968;19.844;2023-02-28T19:16:42;26.77;;;10.40;;
20739;SDS011;10530;49.968;19.844;2023-02-28T19:21:44;25.50;;;9.63;;
20739;SDS011;10530;49.968;19.844;2023-02-28T19:26:47;27.00;;;10.85;;
20739;SDS011;10530;49.968;19.844;2023-02-28T19:31:50;24.65;;;11.18;;
20739;SDS011;10530;49.968;19.844;2023-02-28T19:36:54;25.87;;;9.87;;
20739;SDS011;10530;49.968;19.844;2023-02-28T19:41:57;24.25;;;10.82;;
20739;SDS011;10530;49.968;19.844;2023-02-28T19:47:00;27.23;;;9.20;;
20739;SDS011;10530;49.968;19.844;2023-02-28T19:52:04;24.08;;;10.02;;
20739;SDS011;10530;49.968;19.844;2023-02-28T19:57:07;25.75;;;9.60;;
20739;SDS011;10530;49.968;19.844;2023-02-28T20:02:12;26.53;;;9.97;;
20739;SDS011;10530;49.968;19.844;2023-02-28T20:07:17;18.63;;;8.70;;
20739;SDS011;10530;49.968;19.844;2023-02-28T20:12:23;26.77;;;10.70;;
20739;SDS011;10530;49.968;19.844;2023-02-28T20:17:27;27.73;;;9.20;;
20739;SDS011;10530;49.968;19.844;2023-02-28T20:22:31;26.13;;;10.30;;
20739;SDS011;10530;49.968;19.844;2023-02-28T20:27:34;26.77;;;9.40;;
20739;SDS011;10530;49.968;19.844;2023-02-28T20:32:37;33.17;;;11.48;;
20739;SDS011;10530;49.968;19.844;2023-02-28T20:37:40;27.67;;;11.43;;
20739;SDS011;10530;49.968;19.844;2023-02-28T20:42:43;47.25;;;19.23;;
20739;SDS011;10530;49.968;19.844;2023-02-28T20:47:45;43.80;;;19.75;;
20739;SDS011;10530;49.968;19.844;2023-02-28T20:52:49;50.50;;;18.27;;
20739;SDS011;10530;49.968;19.844;2023-02-28T20:57:52;57.70;;;20.40;;
20739;SDS011;10530;49.968;19.844;2023-02-28T21:02:55;45.10;;;18.73;;
20739;SDS011;10530;49.968;19.844;2023-02-28T21:07:59;48.05;;;18.80;;
20739;SDS011;10530;49.968;19.844;2023-02-28T21:13:03;44.47;;;18.05;;
20739;SDS011;10530;49.968;19.844;2023-02-28T21:18:06;36.27;;;15.87;;
20739;SDS011;10530;49.968;19.844;2023-02-28T21:23:08;41.55;;;17.58;;
20739;SDS011;10530;49.968;19.844;2023-02-28T21:28:11;35.30;;;14.80;;
20739;SDS011;10530;49.968;19.844;2023-02-28T21:33:14;36.00;;;15.32;;
20739;SDS011;10530;49.968;19.844;2023-02-28T21:38:17;39.08;;;17.58;;
20739;SDS011;10530;49.968;19.844;2023-02-28T21:43:20;40.43;;;13.67;;
20739;SDS011;10530;49.968;19.844;2023-02-28T21:48:22;33.33;;;14.93;;
20739;SDS011;10530;49.968;19.844;2023-02-28T21:53:25;28.00;;;13.53;;
20739;SDS011;10530;49.968;19.844;2023-02-28T21:58:28;36.08;;;15.20;;
20739;SDS011;10530;49.968;19.844;2023-02-28T22:03:31;36.13;;;11.93;;
20739;SDS011;10530;49.968;19.844;2023-02-28T22:08:33;41.57;;;15.63;;
20739;SDS011;10530;49.968;19.844;2023-02-28T22:13:36;33.70;;;14.98;;
20739;SDS011;10530;49.968;19.844;2023-02-28T22:18:40;32.50;;;13.83;;
20739;SDS011;10530;49.968;19.844;2023-02-28T22:23:43;27.52;;;13.05;;
20739;SDS011;10530;49.968;19.844;2023-02-28T22:28:47;34.88;;;13.90;;
20739;SDS011;10530;49.968;19.844;2023-02-28T22:33:52;32.77;;;12.10;;
20739;SDS011;10530;49.968;19.844;2023-02-28T22:38:56;45.30;;;12.65;;
20739;SDS011;10530;49.968;19.844;2023-02-28T22:44:02;29.23;;;11.70;;
20739;SDS011;10530;49.968;19.844;2023-02-28T22:49:06;26.88;;;12.25;;
20739;SDS011;10530;49.968;19.844;2023-02-28T22:54:09;28.67;;;11.93;;
20739;SDS011;10530;49.968;19.844;2023-02-28T22:59:12;30.10;;;11.90;;
20739;SDS011;10530;49.968;19.844;2023-02-28T23:04:16;28.75;;;10.88;;
20739;SDS011;10530;49.968;19.844;2023-02-28T23:09:18;25.67;;;11.13;;
20739;SDS011;10530;49.968;19.844;2023-02-28T23:14:24;32.22;;;11.70;;
20739;SDS011;10530;49.968;19.844;2023-02-28T23:19:27;20.17;;;9.88;;
20739;SDS011;10530;49.968;19.844;2023-02-28T23:24:32;32.30;;;11.60;;
20739;SDS011;10530;49.968;19.844;2023-02-28T23:29:35;22.25;;;11.65;;
20739;SDS011;10530;49.968;19.844;2023-02-28T23:34:38;27.37;;;13.17;;
20739;SDS011;10530;49.968;19.844;2023-02-28T23:39:41;22.85;;;9.90;;
20739;SDS011;10530;49.968;19.844;2023-02-28T23:44:43;26.20;;;12.30;;
20739;SDS011;10530;49.968;19.844;2023-02-28T23:49:46;28.40;;;11.47;;
20739;SDS011;10530;49.968;19.844;2023-02-28T23:54:49;36.35;;;12.57;;
20739;SDS011;10530;49.968;19.844;2023-02-28T23:59:51;22.90;;;9.27;;
